createdAt,value
2019-05-21T00:02:13.003Z,13.97
2019-05-21T00:04:42.842Z,15.03
2019-05-21T00:07:10.590Z,16.00
2019-05-21T00:09:38.252Z,15.83
2019-05-21T00:12:05.918Z,15.57
2019-05-21T00:14:33.590Z,15.50
2019-05-21T00:17:01.210Z,17.17
2019-05-21T00:19:28.842Z,16.80
2019-05-21T00:21:56.563Z,16.20
2019-05-21T00:24:25.284Z,16.13
2019-05-21T00:26:54.099Z,17.43
2019-05-21T00:29:34.464Z,16.57
2019-05-21T00:32:38.775Z,16.47
2019-05-21T00:35:49.468Z,16.47
2019-05-21T00:38:54.014Z,17.37
2019-05-21T00:41:58.486Z,18.13
2019-05-21T00:44:26.412Z,17.30
2019-05-21T00:46:54.044Z,17.37
2019-05-21T00:49:21.668Z,16.47
2019-05-21T00:51:49.321Z,16.80
2019-05-21T00:54:17.062Z,18.30
2019-05-21T00:56:44.703Z,18.00
2019-05-21T00:59:12.391Z,16.33
2019-05-21T01:01:40.078Z,17.17
2019-05-21T01:04:07.742Z,18.90
2019-05-21T01:06:35.379Z,17.17
2019-05-21T01:09:04.512Z,17.33
2019-05-21T01:11:32.291Z,18.53
2019-05-21T01:14:00.149Z,16.57
2019-05-21T01:16:27.809Z,17.90
2019-05-21T01:18:55.457Z,18.53
2019-05-21T01:21:23.174Z,16.60
2019-05-21T01:23:50.841Z,17.83
2019-05-21T01:26:18.484Z,16.77
2019-05-21T01:28:46.183Z,17.10
2019-05-21T01:31:13.907Z,18.33
2019-05-21T01:33:41.547Z,18.13
2019-05-21T01:36:09.273Z,17.37
2019-05-21T01:38:36.903Z,17.20
2019-05-21T01:41:04.545Z,16.60
2019-05-21T01:43:32.200Z,16.87
2019-05-21T01:45:59.836Z,19.17
2019-05-21T01:48:27.428Z,17.57
2019-05-21T01:50:55.082Z,17.20
2019-05-21T01:53:22.737Z,17.60
2019-05-21T01:55:50.376Z,17.97
2019-05-21T01:58:18.131Z,17.63
2019-05-21T02:00:45.736Z,17.80
2019-05-21T02:03:13.607Z,17.90
2019-05-21T02:08:14.062Z,17.57
2019-05-21T02:10:41.796Z,17.20
2019-05-21T02:13:09.384Z,17.63
2019-05-21T02:15:37.002Z,18.10
2019-05-21T02:18:06.571Z,18.13
2019-05-21T02:20:34.079Z,18.67
2019-05-21T02:23:01.765Z,18.50
2019-05-21T02:25:30.505Z,17.87
2019-05-21T02:27:58.115Z,18.47
2019-05-21T02:30:25.806Z,18.33
2019-05-21T02:32:53.408Z,19.20
2019-05-21T02:35:21.069Z,17.77
2019-05-21T02:37:48.698Z,17.63
2019-05-21T02:40:16.842Z,18.67
2019-05-21T02:42:44.687Z,20.03
2019-05-21T02:45:13.295Z,19.43
2019-05-21T02:47:40.959Z,19.13
2019-05-21T02:50:08.964Z,18.17
2019-05-21T02:52:36.734Z,18.97
2019-05-21T02:55:05.076Z,19.87
2019-05-21T02:57:41.646Z,19.30
2019-05-21T03:00:39.618Z,18.33
2019-05-21T03:03:07.833Z,19.17
2019-05-21T03:05:35.536Z,18.93
2019-05-21T03:08:03.220Z,18.80
2019-05-21T03:10:30.830Z,18.93
2019-05-21T03:12:58.785Z,19.83
2019-05-21T03:15:26.427Z,19.33
2019-05-21T03:17:55.198Z,18.60
2019-05-21T03:20:22.814Z,18.90
2019-05-21T03:22:50.437Z,18.03
2019-05-21T03:25:18.078Z,18.40
2019-05-21T03:27:45.811Z,18.47
2019-05-21T03:30:14.051Z,20.40
2019-05-21T03:32:41.689Z,20.17
2019-05-21T03:35:09.964Z,18.57
2019-05-21T03:37:38.967Z,21.03
2019-05-21T03:40:08.620Z,21.23
2019-05-21T03:42:37.239Z,20.13
2019-05-21T03:45:07.993Z,20.63
2019-05-21T03:47:34.640Z,18.77
2019-05-21T03:50:02.680Z,19.57
2019-05-21T03:52:30.441Z,19.60
2019-05-21T03:55:02.643Z,18.57
2019-05-21T03:57:27.495Z,18.80
2019-05-21T03:59:55.113Z,18.87
2019-05-21T04:02:23.976Z,17.93
2019-05-21T04:04:51.700Z,17.97
2019-05-21T04:07:19.517Z,18.30
2019-05-21T04:09:47.283Z,18.40
2019-05-21T04:12:14.913Z,18.10
2019-05-21T04:14:47.079Z,18.03
2019-05-21T04:17:34.985Z,18.40
2019-05-21T04:20:03.230Z,18.57
2019-05-21T04:22:30.871Z,18.67
2019-05-21T04:24:58.502Z,19.33
2019-05-21T04:27:26.133Z,19.00
2019-05-21T04:29:53.781Z,18.43
2019-05-21T04:32:21.440Z,19.77
2019-05-21T04:34:49.086Z,19.30
2019-05-21T04:37:17.605Z,19.10
2019-05-21T04:39:45.454Z,19.77
2019-05-21T04:42:13.120Z,19.30
2019-05-21T04:44:40.879Z,20.00
2019-05-21T04:47:08.478Z,21.13
2019-05-21T04:49:36.253Z,20.03
2019-05-21T04:52:03.875Z,20.97
2019-05-21T04:54:31.484Z,20.67
2019-05-21T04:56:59.135Z,20.33
2019-05-21T04:59:27.012Z,21.63
2019-05-21T05:01:54.657Z,20.77
2019-05-21T05:04:22.414Z,19.70
2019-05-21T05:06:50.158Z,21.17
2019-05-21T05:09:18.790Z,19.87
2019-05-21T05:11:46.539Z,21.20
2019-05-21T05:14:14.723Z,19.57
2019-05-21T05:16:42.338Z,20.70
2019-05-21T05:19:10.001Z,21.13
2019-05-21T05:21:37.663Z,21.33
2019-05-21T05:24:05.322Z,21.37
2019-05-21T05:26:32.920Z,22.80
2019-05-21T05:29:00.557Z,22.93
2019-05-21T05:31:28.243Z,20.07
2019-05-21T05:33:55.878Z,19.30
2019-05-21T05:36:23.531Z,21.23
2019-05-21T05:38:51.193Z,21.50
2019-05-21T05:41:18.813Z,23.20
2019-05-21T05:43:46.685Z,21.57
2019-05-21T05:46:14.473Z,22.00
2019-05-21T05:49:06.034Z,21.10
2019-05-21T05:51:33.669Z,19.60
2019-05-21T05:54:02.454Z,22.57
2019-05-21T05:56:30.083Z,21.37
2019-05-21T05:58:58.058Z,22.03
2019-05-21T06:01:26.775Z,20.07
2019-05-21T06:03:54.431Z,20.60
2019-05-21T06:06:23.149Z,21.53
2019-05-21T06:08:50.899Z,22.57
2019-05-21T06:11:19.642Z,21.47
2019-05-21T06:13:47.408Z,20.73
2019-05-21T06:16:15.205Z,21.57
2019-05-21T06:18:42.960Z,22.43
2019-05-21T06:21:10.586Z,20.63
2019-05-21T06:23:40.411Z,21.57
2019-05-21T06:26:08.017Z,20.10
2019-05-21T06:28:35.674Z,21.20
2019-05-21T06:31:04.396Z,19.87
2019-05-21T06:33:32.063Z,19.73
2019-05-21T06:35:59.796Z,19.37
2019-05-21T06:38:27.458Z,18.80
2019-05-21T06:40:55.088Z,17.80
2019-05-21T06:43:23.862Z,18.97
2019-05-21T06:45:53.513Z,18.73
2019-05-21T06:48:21.175Z,19.20
2019-05-21T06:50:48.812Z,20.23
2019-05-21T06:53:16.468Z,18.93
2019-05-21T06:55:44.078Z,18.87
2019-05-21T06:58:11.802Z,17.90
2019-05-21T07:00:39.558Z,17.33
2019-05-21T07:03:07.179Z,17.73
2019-05-21T07:05:34.961Z,16.70
2019-05-21T07:08:02.593Z,17.47
2019-05-21T07:10:30.251Z,16.03
2019-05-21T07:12:57.964Z,17.43
2019-05-21T07:15:25.614Z,19.07
2019-05-21T07:17:53.246Z,17.10
2019-05-21T07:20:21.620Z,18.03
2019-05-21T07:22:49.364Z,18.37
2019-05-21T07:25:16.970Z,16.13
2019-05-21T07:27:44.693Z,13.60
2019-05-21T07:30:12.585Z,15.50
2019-05-21T07:32:41.617Z,13.37
2019-05-21T07:35:09.608Z,11.70
2019-05-21T07:37:37.366Z,11.73
2019-05-21T07:40:06.028Z,11.23
2019-05-21T07:42:33.638Z,11.93
2019-05-21T07:45:01.230Z,11.30
2019-05-21T07:47:30.003Z,10.47
2019-05-21T07:49:57.605Z,11.30
2019-05-21T07:52:25.298Z,11.77
2019-05-21T07:54:52.939Z,10.93
2019-05-21T07:57:20.620Z,10.27
2019-05-21T07:59:48.258Z,10.77
2019-05-21T08:02:17.011Z,11.30
2019-05-21T08:04:44.620Z,11.57
2019-05-21T08:07:12.394Z,11.37
2019-05-21T08:09:40.155Z,11.83
2019-05-21T08:12:34.561Z,12.33
2019-05-21T08:14:37.353Z,11.67
2019-05-21T08:17:05.005Z,11.37
2019-05-21T08:19:32.753Z,11.43
2019-05-21T08:22:00.381Z,11.77
2019-05-21T08:24:28.058Z,10.83
2019-05-21T08:26:55.809Z,10.17
2019-05-21T08:29:25.301Z,11.67
2019-05-21T08:31:52.887Z,11.00
2019-05-21T08:34:20.552Z,11.23
2019-05-21T08:36:48.189Z,12.10
2019-05-21T08:39:27.671Z,10.53
2019-05-21T08:41:45.378Z,11.77
2019-05-21T08:44:13.023Z,13.53
2019-05-21T08:46:40.653Z,12.50
2019-05-21T08:49:08.309Z,14.40
2019-05-21T08:51:37.069Z,14.17
2019-05-21T08:54:04.694Z,12.93
2019-05-21T08:56:32.461Z,13.60
2019-05-21T08:59:00.074Z,9.27
2019-05-21T09:01:27.726Z,7.37
2019-05-21T09:03:55.385Z,5.63
2019-05-21T09:06:23.037Z,5.23
2019-05-21T09:08:50.665Z,5.37
2019-05-21T09:11:18.385Z,4.47
2019-05-21T09:13:47.146Z,4.97
2019-05-21T09:16:14.783Z,4.90
2019-05-21T09:18:42.486Z,5.67
2019-05-21T09:21:10.131Z,5.00
2019-05-21T09:23:37.789Z,5.63
2019-05-21T09:26:05.525Z,5.67
2019-05-21T09:28:33.206Z,6.47
2019-05-21T09:31:01.812Z,6.40
2019-05-21T09:33:30.018Z,7.27
2019-05-21T09:35:57.830Z,7.63
2019-05-21T09:38:25.540Z,8.17
2019-05-21T09:40:53.311Z,7.10
2019-05-21T09:43:20.974Z,7.13
2019-05-21T09:45:48.633Z,7.23
2019-05-21T09:48:16.423Z,7.43
2019-05-21T09:50:44.879Z,7.33
2019-05-21T09:53:12.682Z,7.10
2019-05-21T09:55:40.362Z,7.27
2019-05-21T09:58:27.509Z,6.77
2019-05-21T10:01:22.009Z,6.80
2019-05-21T10:03:53.525Z,7.33
2019-05-21T10:06:21.162Z,7.10
2019-05-21T10:08:48.869Z,7.23
2019-05-21T10:11:29.007Z,6.67
2019-05-21T10:13:56.603Z,5.40
2019-05-21T10:16:24.365Z,4.90
2019-05-21T10:18:51.959Z,4.90
2019-05-21T10:21:20.025Z,4.67
2019-05-21T10:23:47.856Z,4.30
2019-05-21T10:26:16.610Z,4.03
2019-05-21T10:28:44.277Z,4.07
2019-05-21T10:31:13.231Z,3.97
2019-05-21T10:33:40.917Z,3.43
2019-05-21T10:36:08.588Z,3.20
2019-05-21T10:38:36.216Z,3.53
2019-05-21T10:41:04.233Z,3.60
2019-05-21T10:43:31.954Z,3.00
2019-05-21T10:45:59.584Z,2.87
2019-05-21T10:48:27.245Z,2.70
2019-05-21T10:50:54.958Z,2.57
2019-05-21T10:53:22.665Z,2.47
2019-05-21T10:55:50.387Z,2.30
2019-05-21T10:58:18.063Z,2.40
2019-05-21T11:00:47.307Z,2.13
2019-05-21T11:03:18.866Z,2.33
2019-05-21T11:06:08.594Z,2.00
2019-05-21T11:08:24.006Z,2.33
2019-05-21T11:10:51.087Z,2.50
2019-05-21T11:13:18.975Z,2.10
2019-05-21T11:15:46.744Z,2.30
2019-05-21T11:18:14.576Z,2.10
2019-05-21T11:20:42.599Z,2.27
2019-05-21T11:23:10.352Z,2.43
2019-05-21T11:25:38.025Z,2.50
2019-05-21T11:28:06.334Z,2.47
2019-05-21T11:30:34.256Z,2.37
2019-05-21T11:33:01.908Z,2.40
2019-05-21T11:35:29.573Z,2.57
2019-05-21T11:37:57.467Z,2.73
2019-05-21T11:40:25.505Z,2.60
2019-05-21T11:42:53.450Z,2.77
2019-05-21T11:45:31.627Z,2.97
2019-05-21T11:47:54.658Z,3.60
2019-05-21T11:50:22.571Z,3.37
2019-05-21T11:52:50.234Z,4.03
2019-05-21T11:55:17.862Z,3.27
2019-05-21T11:57:45.530Z,3.30
2019-05-21T12:00:14.078Z,3.70
2019-05-21T12:02:41.750Z,3.63
2019-05-21T12:05:09.863Z,4.37
2019-05-21T12:07:37.582Z,3.97
2019-05-21T12:10:06.254Z,3.80
2019-05-21T12:12:33.892Z,3.90
2019-05-21T12:15:01.729Z,3.63
2019-05-21T12:17:29.482Z,4.00
2019-05-21T12:19:57.139Z,3.83
2019-05-21T12:22:24.786Z,3.73
2019-05-21T12:24:52.527Z,4.60
2019-05-21T12:27:20.210Z,4.77
2019-05-21T12:29:47.845Z,4.67
2019-05-21T12:32:20.633Z,5.13
2019-05-21T12:34:46.061Z,5.33
2019-05-21T12:37:13.818Z,5.57
2019-05-21T12:39:41.490Z,6.23
2019-05-21T12:42:10.975Z,5.67
2019-05-21T12:44:38.655Z,5.70
2019-05-21T12:47:09.549Z,5.37
2019-05-21T12:49:35.893Z,5.57
2019-05-21T12:52:03.839Z,5.50
2019-05-21T12:54:31.510Z,5.10
2019-05-21T12:56:59.173Z,5.20
2019-05-21T12:59:26.863Z,4.77
2019-05-21T13:01:56.286Z,5.10
2019-05-21T13:04:24.864Z,5.70
2019-05-21T13:06:52.664Z,5.03
2019-05-21T13:09:32.436Z,5.57
2019-05-21T13:11:49.890Z,6.33
2019-05-21T13:14:18.887Z,6.23
2019-05-21T13:16:46.731Z,7.07
2019-05-21T13:19:14.354Z,7.43
2019-05-21T13:21:42.208Z,7.30
2019-05-21T13:24:09.856Z,7.00
2019-05-21T13:26:37.505Z,8.80
2019-05-21T13:29:06.564Z,9.23
2019-05-21T13:31:34.218Z,9.57
2019-05-21T13:34:01.950Z,10.60
2019-05-21T13:36:29.663Z,10.53
2019-05-21T13:38:57.419Z,10.60
2019-05-21T13:41:26.349Z,10.73
2019-05-21T13:43:55.276Z,10.97
2019-05-21T13:46:23.064Z,10.00
2019-05-21T13:48:50.821Z,10.43
2019-05-21T13:51:18.537Z,9.33
2019-05-21T13:53:46.406Z,10.23
2019-05-21T13:56:14.329Z,8.97
2019-05-21T13:58:42.140Z,9.13
2019-05-21T14:01:10.414Z,8.63
2019-05-21T14:03:38.248Z,9.83
2019-05-21T14:06:05.890Z,9.63
2019-05-21T14:10:55.593Z,9.27
2019-05-21T14:13:23.624Z,9.13
2019-05-21T14:15:51.283Z,9.10
2019-05-21T14:18:19.364Z,8.27
2019-05-21T14:20:47.188Z,8.00
2019-05-21T14:23:14.914Z,8.13
2019-05-21T14:25:42.779Z,7.30
2019-05-21T14:28:11.512Z,7.27
2019-05-21T14:30:39.204Z,7.20
2019-05-21T14:33:07.093Z,7.03
2019-05-21T14:35:34.866Z,6.80
2019-05-21T14:38:02.734Z,7.10
2019-05-21T14:40:32.568Z,7.37
2019-05-21T14:43:00.886Z,7.50
2019-05-21T14:45:33.118Z,6.90
2019-05-21T14:47:58.240Z,7.40
2019-05-21T14:50:26.002Z,8.20
2019-05-21T14:52:53.716Z,7.87
2019-05-21T14:55:21.338Z,7.07
2019-05-21T14:57:49.265Z,7.93
2019-05-21T15:00:23.190Z,8.03
2019-05-21T15:02:50.970Z,7.10
2019-05-21T15:05:18.687Z,7.03
2019-05-21T15:07:49.629Z,7.80
2019-05-21T15:10:16.534Z,6.63
2019-05-21T15:12:44.232Z,6.73
2019-05-21T15:15:12.429Z,6.70
2019-05-21T15:17:40.153Z,5.90
2019-05-21T15:20:12.742Z,5.37
2019-05-21T15:22:40.461Z,6.43
2019-05-21T15:25:08.211Z,5.50
2019-05-21T15:27:35.958Z,5.30
2019-05-21T15:30:04.217Z,5.40
2019-05-21T15:32:32.993Z,5.00
2019-05-21T15:35:00.657Z,5.60
2019-05-21T15:37:29.399Z,5.43
2019-05-21T15:39:57.083Z,5.83
2019-05-21T15:42:24.823Z,5.23
2019-05-21T15:44:52.537Z,5.67
2019-05-21T15:47:20.177Z,6.33
2019-05-21T15:49:47.836Z,5.53
2019-05-21T15:52:15.525Z,7.13
2019-05-21T15:54:43.170Z,7.63
2019-05-21T15:57:10.942Z,7.50
2019-05-21T15:59:38.605Z,6.80
2019-05-21T16:02:06.563Z,8.20
2019-05-21T16:04:34.188Z,6.77
2019-05-21T16:07:03.086Z,7.50
2019-05-21T16:09:30.739Z,7.17
2019-05-21T16:11:58.357Z,7.07
2019-05-21T16:14:26.012Z,7.00
2019-05-21T16:16:53.674Z,5.30
2019-05-21T16:19:21.418Z,5.63
2019-05-21T16:21:50.184Z,5.63
2019-05-21T16:24:17.910Z,6.40
2019-05-21T16:26:45.539Z,5.77
2019-05-21T16:29:13.157Z,6.47
2019-05-21T16:31:40.973Z,7.20
2019-05-21T16:34:08.630Z,7.47
2019-05-21T16:36:36.261Z,8.53
2019-05-21T16:39:06.337Z,7.50
2019-05-21T16:41:44.084Z,7.20
2019-05-21T16:44:03.768Z,6.83
2019-05-21T16:46:32.401Z,6.13
2019-05-21T16:49:00.091Z,6.50
2019-05-21T16:51:27.729Z,7.20
2019-05-21T16:53:55.395Z,7.23
2019-05-21T16:56:23.181Z,8.03
2019-05-21T16:58:50.888Z,8.33
2019-05-21T17:01:18.648Z,8.87
2019-05-21T17:03:59.109Z,7.80
2019-05-21T17:06:15.787Z,8.50
2019-05-21T17:08:44.450Z,9.03
2019-05-21T17:11:12.105Z,10.40
2019-05-21T17:13:39.757Z,9.67
2019-05-21T17:16:08.584Z,10.67
2019-05-21T17:18:37.363Z,9.50
2019-05-21T17:21:05.046Z,11.80
2019-05-21T17:23:32.953Z,12.17
2019-05-21T17:26:00.650Z,11.93
2019-05-21T17:28:28.467Z,11.77
2019-05-21T17:30:56.104Z,13.90
2019-05-21T17:33:23.749Z,12.27
2019-05-21T17:35:51.405Z,12.83
2019-05-21T17:38:19.032Z,14.17
2019-05-21T17:40:46.812Z,13.40
2019-05-21T17:43:14.639Z,13.10
2019-05-21T17:45:42.378Z,12.97
2019-05-21T17:48:22.776Z,12.00
2019-05-21T17:50:50.630Z,12.80
2019-05-21T17:53:18.359Z,12.67
2019-05-21T17:55:46.204Z,13.37
2019-05-21T17:58:14.082Z,12.30
2019-05-21T18:00:51.657Z,12.03
2019-05-21T18:03:19.413Z,11.77
2019-05-21T18:05:47.453Z,12.20
2019-05-21T18:08:17.207Z,11.30
2019-05-21T18:10:45.551Z,11.23
2019-05-21T18:13:13.913Z,12.60
2019-05-21T18:15:42.180Z,13.53
2019-05-21T18:18:10.629Z,12.93
2019-05-21T18:20:39.224Z,12.50
2019-05-21T18:23:07.520Z,13.50
2019-05-21T18:25:35.407Z,12.57
2019-05-21T18:28:03.201Z,11.80
2019-05-21T18:30:31.147Z,12.13
2019-05-21T18:33:00.214Z,13.53
2019-05-21T18:35:28.042Z,13.17
2019-05-21T18:37:55.985Z,12.53
2019-05-21T18:40:24.943Z,13.47
2019-05-21T18:42:52.733Z,12.73
2019-05-21T18:45:20.562Z,13.77
2019-05-21T18:47:48.335Z,13.27
2019-05-21T18:50:16.265Z,14.83
2019-05-21T18:52:44.147Z,14.87
2019-05-21T18:55:12.301Z,14.03
2019-05-21T18:57:40.363Z,13.77
2019-05-21T19:00:08.983Z,13.13
2019-05-21T19:02:36.868Z,13.80
2019-05-21T19:05:05.090Z,13.70
2019-05-21T19:07:32.931Z,13.47
2019-05-21T19:10:01.474Z,13.67
2019-05-21T19:12:38.237Z,13.20
2019-05-21T19:15:00.829Z,13.73
2019-05-21T19:17:35.583Z,13.77
2019-05-21T19:20:01.244Z,12.57
2019-05-21T19:22:30.164Z,12.97
2019-05-21T19:24:58.175Z,12.40
2019-05-21T19:27:25.949Z,12.70
2019-05-21T19:29:53.730Z,13.17
2019-05-21T19:32:21.612Z,12.60
2019-05-21T19:34:50.418Z,13.07
2019-05-21T19:37:18.304Z,13.60
2019-05-21T19:39:46.360Z,11.97
2019-05-21T19:42:15.993Z,12.13
2019-05-21T19:44:43.831Z,12.77
2019-05-21T19:47:11.595Z,12.20
2019-05-21T19:49:39.270Z,11.37
2019-05-21T19:52:08.229Z,12.37
2019-05-21T19:54:35.968Z,12.00
2019-05-21T19:57:04.275Z,12.97
2019-05-21T19:59:32.297Z,10.97
2019-05-21T20:02:00.307Z,12.53
2019-05-21T20:04:28.674Z,11.60
2019-05-21T20:06:56.530Z,11.73
2019-05-21T20:09:27.175Z,11.70
2019-05-21T20:11:54.898Z,12.07
2019-05-21T20:14:22.530Z,12.17
2019-05-21T20:16:50.809Z,10.90
2019-05-21T20:19:21.004Z,11.87
2019-05-21T20:21:48.648Z,12.00
2019-05-21T20:24:16.516Z,11.80
2019-05-21T20:26:44.602Z,11.93
2019-05-21T20:29:12.771Z,11.43
2019-05-21T20:31:40.620Z,10.90
2019-05-21T20:34:09.865Z,10.17
2019-05-21T20:36:40.765Z,11.37
2019-05-21T20:39:09.616Z,10.27
2019-05-21T20:41:40.180Z,9.93
2019-05-21T20:44:12.421Z,10.10
2019-05-21T20:46:40.338Z,10.40
2019-05-21T20:49:09.536Z,9.83
2019-05-21T20:51:37.820Z,10.73
2019-05-21T20:54:07.565Z,10.77
2019-05-21T20:56:35.221Z,10.57
2019-05-21T20:59:03.246Z,10.50
2019-05-21T21:01:31.497Z,10.57
2019-05-21T21:03:59.507Z,11.23
2019-05-21T21:06:35.482Z,11.83
2019-05-21T21:08:56.864Z,10.73
2019-05-21T21:11:25.728Z,10.17
2019-05-21T21:13:53.470Z,10.57
2019-05-21T21:16:21.441Z,10.97
2019-05-21T21:18:49.074Z,11.20
2019-05-21T21:21:17.043Z,11.13
2019-05-21T21:23:58.313Z,11.10
2019-05-21T21:26:26.391Z,11.13
2019-05-21T21:28:54.170Z,11.93
2019-05-21T21:31:22.434Z,12.03
2019-05-21T21:33:50.155Z,11.37
2019-05-21T21:36:18.176Z,12.07
2019-05-21T21:38:47.146Z,11.70
2019-05-21T21:41:14.882Z,11.90
2019-05-21T21:43:42.552Z,11.40
2019-05-21T21:46:10.403Z,12.43
2019-05-21T21:48:38.158Z,11.80
2019-05-21T21:51:07.472Z,11.67
2019-05-21T21:53:35.510Z,10.90
2019-05-21T21:56:03.155Z,11.30
2019-05-21T21:58:30.785Z,11.13
2019-05-21T22:01:33.131Z,10.87
2019-05-21T22:04:04.699Z,11.87
2019-05-21T22:06:34.906Z,12.57
2019-05-21T22:09:06.236Z,11.87
2019-05-21T22:11:34.154Z,11.27
2019-05-21T22:14:02.469Z,11.23
2019-05-21T22:16:30.355Z,10.93
2019-05-21T22:18:58.401Z,12.00
2019-05-21T22:21:26.932Z,12.97
2019-05-21T22:23:54.604Z,12.00
2019-05-21T22:26:22.786Z,12.10
2019-05-21T22:28:50.597Z,12.40
2019-05-21T22:31:18.267Z,13.27
2019-05-21T22:33:45.896Z,13.43
2019-05-21T22:36:14.129Z,13.87
2019-05-21T22:38:41.793Z,13.93
2019-05-21T22:41:09.472Z,12.53
2019-05-21T22:43:37.119Z,12.67
2019-05-21T22:46:04.754Z,12.40
2019-05-21T22:48:32.404Z,13.67
2019-05-21T22:51:00.022Z,14.07
2019-05-21T22:53:27.657Z,13.23
2019-05-21T22:55:55.383Z,13.17
2019-05-21T22:58:23.036Z,13.67
2019-05-21T23:00:51.011Z,14.63
2019-05-21T23:03:18.799Z,12.83
2019-05-21T23:05:46.446Z,13.47
2019-05-21T23:08:15.307Z,13.67
2019-05-21T23:10:42.975Z,14.70
2019-05-21T23:13:10.633Z,15.47
2019-05-21T23:15:39.016Z,13.50
2019-05-21T23:18:18.364Z,14.30
2019-05-21T23:21:08.433Z,14.53
2019-05-21T23:23:37.033Z,13.50
2019-05-21T23:26:05.592Z,14.50
2019-05-21T23:28:33.781Z,13.07
2019-05-21T23:31:02.633Z,14.23
2019-05-21T23:33:30.584Z,13.83
2019-05-21T23:35:58.858Z,13.87
2019-05-21T23:38:27.089Z,15.27
2019-05-21T23:40:54.752Z,15.73
2019-05-21T23:43:22.975Z,15.90
2019-05-21T23:45:50.848Z,15.37
2019-05-21T23:48:18.467Z,14.40
2019-05-21T23:50:46.073Z,15.30
2019-05-21T23:53:14.184Z,15.83
2019-05-21T23:55:42.027Z,14.73
2019-05-21T23:58:09.676Z,15.23
